Time;durP1;ratioP1;P1;durP2;ratioP2;P2;SDS_P1;SDS_P2;PMS_P1;PMS_P2;Temp;Humidity;BMP_temperature;BMP_pressure;BME280_temperature;BME280_humidity;BME280_pressure;Samples;Min_cycle;Max_cycle;Signal;HPM_P1;HPM_P2
2021/10/07 00:02:03;;;;;;;;;7.00;6.25;;;;;14.46;61.56;102319.25;5017465;28;45281;-81
2021/10/07 00:04:30;;;;;;;;;6.50;6.00;;;;;14.45;61.50;102309.66;5017669;28;45475;-81
2021/10/07 00:06:56;;;;;;;;;4.75;4.75;;;;;14.45;61.49;102316.59;5017727;28;45507;-82
2021/10/07 00:09:22;;;;;;;;;6.00;4.50;;;;;14.37;61.48;102310.97;5012207;28;47547;-82
2021/10/07 00:11:48;;;;;;;;;7.25;5.00;;;;;14.39;61.72;102312.81;5015700;28;45793;-82
2021/10/07 00:14:14;;;;;;;;;5.75;4.00;;;;;14.34;61.78;102314.31;5020430;28;45366;-81
2021/10/07 00:16:40;;;;;;;;;6.75;4.25;;;;;14.33;62.00;102325.53;5019427;28;45410;-81
2021/10/07 00:19:05;;;;;;;;;5.00;4.00;;;;;14.25;62.28;102321.63;5017132;28;45298;-81
2021/10/07 00:21:31;;;;;;;;;4.00;3.75;;;;;14.22;62.26;102317.13;5017035;28;45248;-82
2021/10/07 00:26:26;;;;;;;;;3.00;2.00;;;;;14.20;62.33;102334.38;5017676;28;45481;-81
2021/10/07 00:28:54;;;;;;;;;2.00;2.00;;;;;14.21;62.64;102335.28;5017209;28;45943;-82
2021/10/07 00:31:23;;;;;;;;;4.00;4.00;;;;;14.19;62.32;102327.41;5016923;28;45664;-81
2021/10/07 00:34:17;;;;;;;;;3.00;3.00;;;;;14.11;62.03;102315.63;5016931;28;45309;-80
2021/10/07 00:39:04;;;;;;;;;3.50;3.50;;;;;14.12;62.08;102314.84;5023328;28;45775;-81
2021/10/07 00:41:31;;;;;;;;;3.50;2.00;;;;;14.09;62.26;102312.09;5016388;28;45708;-81
2021/10/07 00:44:03;;;;;;;;;1.75;0.50;;;;;14.17;62.60;102331.63;5015937;28;45283;-81
2021/10/07 00:46:29;;;;;;;;;4.25;3.75;;;;;14.13;62.45;102331.38;5017454;28;45231;-81
2021/10/07 00:48:54;;;;;;;;;3.75;3.75;;;;;14.16;62.44;102335.03;5017417;28;46131;-81
2021/10/07 00:51:20;;;;;;;;;3.00;3.00;;;;;14.02;62.32;102302.13;5016921;28;45197;-81
2021/10/07 00:53:45;;;;;;;;;7.00;4.25;;;;;14.14;62.87;102331.44;5017675;28;45480;-81
2021/10/07 00:56:11;;;;;;;;;4.50;3.50;;;;;14.10;62.57;102329.47;5018757;28;45201;-81
2021/10/07 00:58:38;;;;;;;;;4.50;4.50;;;;;14.04;63.14;102323.94;5016827;28;46010;-81
2021/10/07 01:01:04;;;;;;;;;7.00;5.00;;;;;14.07;62.86;102339.75;5017000;28;45386;-81
2021/10/07 01:03:33;;;;;;;;;6.25;5.00;;;;;13.96;62.84;102317.44;5016166;28;45403;-81
2021/10/07 01:05:59;;;;;;;;;5.50;4.50;;;;;14.01;63.17;102336.78;5018352;28;45516;-81
2021/10/07 01:08:25;;;;;;;;;4.25;2.75;;;;;13.94;63.32;102322.53;5016243;28;46051;-81
2021/10/07 01:10:50;;;;;;;;;6.75;4.50;;;;;13.89;62.99;102316.19;5016443;28;45295;-81
2021/10/07 01:13:16;;;;;;;;;6.75;5.00;;;;;13.93;63.15;102329.47;5016366;28;45213;-81
2021/10/07 01:15:42;;;;;;;;;8.00;5.50;;;;;13.86;63.69;102313.41;5032607;28;45671;-81
2021/10/07 01:18:08;;;;;;;;;3.75;3.00;;;;;13.81;63.58;102310.53;5016057;28;46155;-81
2021/10/07 01:20:34;;;;;;;;;2.75;2.75;;;;;13.96;63.60;102326.13;5016380;28;45901;-82
2021/10/07 01:22:59;;;;;;;;;4.50;2.75;;;;;13.90;63.57;102317.97;5020419;28;45481;-80
2021/10/07 01:25:32;;;;;;;;;6.25;4.00;;;;;13.80;63.47;102311.34;5023357;28;45569;-81
2021/10/07 01:27:57;;;;;;;;;2.25;2.00;;;;;13.92;63.69;102334.59;5017300;28;45518;-80
2021/10/07 01:30:23;;;;;;;;;4.25;2.50;;;;;13.91;63.56;102332.78;5035449;28;45774;-81
2021/10/07 01:32:49;;;;;;;;;1.00;1.00;;;;;13.83;63.62;102318.44;5017674;28;45315;-82
2021/10/07 01:35:15;;;;;;;;;1.25;1.00;;;;;13.69;63.41;102295.16;5016612;28;45552;-81
2021/10/07 01:37:40;;;;;;;;;5.00;5.00;;;;;13.84;63.49;102318.53;5031633;28;46940;-82
2021/10/07 01:40:11;;;;;;;;;4.00;3.00;;;;;13.91;63.39;102332.78;5015945;28;45500;-82
2021/10/07 01:42:38;;;;;;;;;4.00;3.00;;;;;13.75;63.62;102297.19;5016166;28;45350;-82
2021/10/07 01:45:05;;;;;;;;;6.00;5.00;;;;;13.89;63.94;102326.59;5018078;28;45619;-81
2021/10/07 01:47:30;;;;;;;;;3.25;3.25;;;;;13.84;63.67;102318.53;5019386;28;45469;-82
2021/10/07 01:49:56;;;;;;;;;2.25;2.00;;;;;13.70;63.73;102298.63;5019378;28;45379;-82
2021/10/07 01:52:21;;;;;;;;;4.25;4.00;;;;;13.84;63.78;102317.63;5019279;28;45224;-81
2021/10/07 01:54:47;;;;;;;;;5.25;4.00;;;;;13.82;63.84;102325.34;5020110;28;45533;-81
2021/10/07 01:57:13;;;;;;;;;4.25;3.75;;;;;13.72;63.90;102316.13;5019840;28;45247;-81
2021/10/07 01:59:38;;;;;;;;;5.50;5.00;;;;;13.81;64.19;102331.38;5020297;28;45330;-81
2021/10/07 02:02:04;;;;;;;;;9.00;6.50;;;;;13.78;64.33;102326.00;5022123;28;45254;-81
2021/10/07 02:04:29;;;;;;;;;5.00;5.00;;;;;13.69;64.18;102309.84;5020374;28;45596;-81
2021/10/07 02:06:55;;;;;;;;;3.75;3.75;;;;;13.76;64.10;102325.91;5023278;28;45449;-81
2021/10/07 02:09:21;;;;;;;;;4.25;2.00;;;;;13.73;64.12;102330.94;5028310;28;45212;-81
2021/10/07 02:11:46;;;;;;;;;5.50;5.50;;;;;13.70;64.43;102322.97;5021915;28;45295;-82
2021/10/07 02:14:12;;;;;;;;;6.50;6.50;;;;;13.53;64.42;102293.41;5018729;28;45375;-81
2021/10/07 02:16:37;;;;;;;;;4.50;3.00;;;;;13.61;64.41;102307.72;5019433;28;45568;-82
2021/10/07 02:19:03;;;;;;;;;3.75;3.75;;;;;13.68;64.33;102313.25;5018654;28;45379;-82
2021/10/07 02:21:29;;;;;;;;;8.25;3.75;;;;;13.57;64.23;102297.94;5018944;28;45828;-81
2021/10/07 02:23:54;;;;;;;;;7.25;4.25;;;;;13.61;64.29;102299.00;5019320;28;45309;-82
2021/10/07 02:26:20;;;;;;;;;3.00;3.00;;;;;13.58;64.57;102297.13;5018708;28;45728;-82
2021/10/07 02:28:46;;;;;;;;;5.25;3.75;;;;;13.67;65.00;102316.69;5018966;28;45712;-81
2021/10/07 02:31:12;;;;;;;;;5.00;2.50;;;;;13.67;64.70;102315.00;5018234;28;45301;-82
2021/10/07 02:33:38;;;;;;;;;5.50;4.00;;;;;13.62;64.60;102300.81;5019109;28;45244;-82
2021/10/07 02:36:04;;;;;;;;;6.25;5.25;;;;;13.68;64.64;102314.19;5019084;28;45813;-81
2021/10/07 02:38:30;;;;;;;;;5.00;4.25;;;;;13.65;64.89;102313.13;5033775;28;45266;-81
2021/10/07 02:40:55;;;;;;;;;4.00;4.00;;;;;13.46;64.84;102288.63;5019207;28;45173;-81
2021/10/07 02:43:21;;;;;;;;;4.50;3.25;;;;;13.61;64.88;102312.94;5018701;28;45399;-81
2021/10/07 02:45:47;;;;;;;;;5.75;5.00;;;;;13.56;64.79;102311.75;5019864;28;45994;-81
2021/10/07 02:48:12;;;;;;;;;6.50;5.25;;;;;13.54;64.80;102309.88;5019099;28;45330;-81
2021/10/07 02:50:38;;;;;;;;;8.75;5.50;;;;;13.59;64.61;102322.34;5034123;28;45300;-81
2021/10/07 02:53:04;;;;;;;;;7.75;6.50;;;;;13.47;64.94;102300.84;5027160;28;45519;-82
2021/10/07 02:55:30;;;;;;;;;6.00;6.00;;;;;13.27;64.95;102276.28;5022829;28;46277;-82
2021/10/07 02:57:55;;;;;;;;;7.75;5.50;;;;;13.44;64.78;102301.56;5018386;28;45478;-81
2021/10/07 03:00:21;;;;;;;;;5.50;4.00;;;;;13.48;64.85;102312.16;5018552;28;45323;-81
2021/10/07 03:02:47;;;;;;;;;6.75;4.50;;;;;13.44;65.16;102311.97;5019445;28;45512;-81
2021/10/07 03:05:15;;;;;;;;;6.00;4.50;;;;;13.42;65.16;102312.69;5018816;28;45339;-81
2021/10/07 03:07:41;;;;;;;;;6.75;5.75;;;;;13.34;64.95;102304.41;5017446;28;45818;-81
2021/10/07 03:10:07;;;;;;;;;5.75;5.00;;;;;13.29;64.88;102311.97;5018788;28;45236;-81
2021/10/07 03:12:33;;;;;;;;;8.50;7.50;;;;;13.23;65.19;102303.78;5018157;28;45647;-81
2021/10/07 03:14:58;;;;;;;;;5.00;5.00;;;;;13.21;65.32;102309.72;5018136;28;45946;-81
2021/10/07 03:17:24;;;;;;;;;5.75;5.75;;;;;13.27;65.63;102325.69;5018111;28;45453;-81
2021/10/07 03:19:50;;;;;;;;;5.00;5.00;;;;;13.19;65.67;102325.25;5019948;28;45279;-81
2021/10/07 03:22:15;;;;;;;;;5.50;5.50;;;;;13.10;65.94;102319.50;5018922;28;45285;-81
2021/10/07 03:24:43;;;;;;;;;4.50;4.50;;;;;13.14;66.09;102342.25;5018505;28;46568;-82
2021/10/07 03:27:09;;;;;;;;;5.25;5.00;;;;;13.08;66.22;102331.50;5017696;28;45512;-82
2021/10/07 03:29:34;;;;;;;;;9.50;5.00;;;;;13.03;66.22;102335.53;5018942;28;45473;-82
2021/10/07 03:32:00;;;;;;;;;7.25;7.25;;;;;12.91;66.50;102315.78;5020055;28;45517;-81
2021/10/07 03:34:26;;;;;;;;;6.00;6.00;;;;;12.89;66.26;102321.72;5018352;28;45242;-82
2021/10/07 03:36:51;;;;;;;;;7.50;7.00;;;;;12.86;66.17;102327.63;5018665;28;45526;-81
2021/10/07 03:39:17;;;;;;;;;15.00;8.50;;;;;12.83;66.32;102338.75;5022196;28;45313;-82
2021/10/07 03:41:43;;;;;;;;;6.75;6.25;;;;;12.85;66.21;102344.03;5019036;28;45509;-82
2021/10/07 03:44:09;;;;;;;;;8.25;7.00;;;;;12.84;66.65;102340.56;5017956;28;45500;-82
2021/10/07 03:46:34;;;;;;;;;12.00;6.00;;;;;12.75;66.63;102323.50;5017298;28;45390;-81
2021/10/07 03:49:00;;;;;;;;;8.75;5.25;;;;;12.77;66.55;102334.88;5016516;28;45325;-82
2021/10/07 03:51:26;;;;;;;;;9.25;7.50;;;;;12.70;66.49;102326.69;5012964;28;45387;-82
2021/10/07 03:53:51;;;;;;;;;7.25;7.00;;;;;12.70;66.76;102331.00;4997813;28;45347;-82
2021/10/07 03:56:17;;;;;;;;;5.25;5.00;;;;;12.66;66.85;102339.41;4997724;28;45375;-82
2021/10/07 03:58:43;;;;;;;;;8.75;7.00;;;;;12.61;67.26;102338.25;4998868;28;45339;-82
2021/10/07 04:01:08;;;;;;;;;7.25;6.25;;;;;12.49;67.18;102334.09;4999526;28;45420;-81
2021/10/07 04:03:34;;;;;;;;;11.00;9.00;;;;;12.45;67.39;102319.13;4997470;28;45971;-81
2021/10/07 04:06:00;;;;;;;;;8.50;7.50;;;;;12.64;67.06;102352.31;4998206;28;45298;-81
2021/10/07 04:08:26;;;;;;;;;10.25;7.25;;;;;12.64;67.22;102359.19;5016565;28;45209;-81
2021/10/07 04:10:51;;;;;;;;;7.00;7.00;;;;;12.61;67.68;102354.72;5017889;28;45458;-81
2021/10/07 04:13:18;;;;;;;;;7.00;6.75;;;;;12.61;67.11;102346.03;5017183;28;46590;-81
2021/10/07 04:15:46;;;;;;;;;4.00;4.00;;;;;12.63;67.04;102349.66;5016290;28;45872;-80
2021/10/07 04:18:13;;;;;;;;;8.75;8.25;;;;;12.69;67.12;102358.69;5017870;28;45260;-82
2021/10/07 04:20:39;;;;;;;;;6.75;6.00;;;;;12.73;67.28;102356.28;5040793;28;45282;-82
2021/10/07 04:23:05;;;;;;;;;10.00;6.25;;;;;12.70;67.21;102346.59;5023798;28;46049;-82
2021/10/07 04:25:30;;;;;;;;;7.75;5.75;;;;;12.59;66.94;102332.94;5020085;28;45246;-81
2021/10/07 04:27:56;;;;;;;;;9.00;9.00;;;;;12.72;66.87;102354.47;5040028;28;45476;-81
2021/10/07 04:30:22;;;;;;;;;11.00;6.50;;;;;12.72;66.90;102362.28;5033982;28;45186;-81
2021/10/07 04:32:48;;;;;;;;;7.25;7.25;;;;;12.60;66.84;102344.25;5017032;28;46330;-82
2021/10/07 04:35:14;;;;;;;;;8.00;6.50;;;;;12.70;67.03;102364.78;5032310;28;45418;-81
2021/10/07 04:37:39;;;;;;;;;8.00;6.50;;;;;12.60;66.99;102358.13;5018139;28;45446;-81
2021/10/07 04:40:06;;;;;;;;;7.75;6.00;;;;;12.65;67.06;102364.50;5017732;28;45326;-81
2021/10/07 04:42:32;;;;;;;;;6.75;5.00;;;;;12.63;66.97;102363.53;5016640;28;45476;-81
2021/10/07 04:44:57;;;;;;;;;6.00;4.00;;;;;12.62;67.00;102360.84;5014849;28;45367;-81
2021/10/07 04:47:23;;;;;;;;;7.00;7.00;;;;;12.63;67.16;102360.03;5011499;28;45377;-81
2021/10/07 04:49:49;;;;;;;;;7.25;6.25;;;;;12.59;67.13;102353.72;4997073;28;45313;-82
2021/10/07 04:52:15;;;;;;;;;4.00;4.00;;;;;12.58;67.02;102353.66;4997115;28;45907;-82
2021/10/07 04:54:41;;;;;;;;;9.00;7.50;;;;;12.58;67.01;102344.13;4997201;28;45357;-82
2021/10/07 04:57:06;;;;;;;;;8.00;6.50;;;;;12.69;67.07;102358.69;4999264;28;45306;-83
2021/10/07 04:59:32;;;;;;;;;9.00;7.50;;;;;12.64;67.01;102347.13;5016637;28;45572;-82
2021/10/07 05:01:58;;;;;;;;;8.00;6.25;;;;;12.63;66.95;102358.31;5016099;28;45910;-83
2021/10/07 05:04:23;;;;;;;;;8.00;7.75;;;;;12.61;67.16;102359.03;5020671;28;45385;-80
2021/10/07 05:06:49;;;;;;;;;6.50;6.25;;;;;12.57;66.96;102359.63;5019737;28;45315;-82
2021/10/07 05:09:15;;;;;;;;;8.75;7.00;;;;;12.43;67.38;102343.22;5017245;28;45491;-81
2021/10/07 05:11:40;;;;;;;;;7.50;7.00;;;;;12.56;67.14;102376.03;5017100;28;45870;-81
2021/10/07 05:14:06;;;;;;;;;6.25;5.00;;;;;12.50;67.47;102363.56;5016729;28;45384;-81
2021/10/07 05:16:31;;;;;;;;;8.00;6.50;;;;;12.50;67.33;102371.34;5017778;28;45456;-81
2021/10/07 05:18:57;;;;;;;;;5.50;5.25;;;;;12.46;67.44;102366.78;5016195;28;45620;-82
2021/10/07 05:21:22;;;;;;;;;8.00;7.00;;;;;12.38;67.51;102361.09;5016123;28;45311;-82
2021/10/07 05:23:48;;;;;;;;;5.75;4.75;;;;;12.34;67.57;102365.22;5015783;28;45343;-82
2021/10/07 05:26:15;;;;;;;;;7.50;6.75;;;;;12.46;67.36;102390.16;5016446;28;45238;-82
2021/10/07 05:28:44;;;;;;;;;9.50;8.00;;;;;12.43;67.43;102376.97;5016549;28;45211;-82
2021/10/07 05:31:10;;;;;;;;;9.75;6.50;;;;;12.51;67.65;102393.94;5015981;28;45972;-83
2021/10/07 05:33:36;;;;;;;;;7.50;7.25;;;;;12.52;67.41;102390.53;5015167;28;45399;-83
2021/10/07 05:36:02;;;;;;;;;8.00;7.00;;;;;12.27;67.74;102350.03;5015255;28;45280;-82
2021/10/07 05:38:27;;;;;;;;;9.00;9.00;;;;;12.51;67.41;102391.34;5012420;28;45541;-83
2021/10/07 05:40:53;;;;;;;;;12.50;8.00;;;;;12.46;67.34;102374.59;5013508;28;46458;-82
2021/10/07 05:43:18;;;;;;;;;14.25;8.25;;;;;12.55;67.46;102401.13;5015670;28;45312;-82
2021/10/07 05:45:44;;;;;;;;;7.25;7.25;;;;;12.57;66.91;102396.00;5031424;28;45366;-76
2021/10/07 05:48:09;;;;;;;;;8.75;8.75;;;;;12.48;67.24;102389.44;5019035;28;45247;-78
2021/10/07 05:50:35;;;;;;;;;10.00;10.00;;;;;12.50;67.16;102389.53;5019061;28;45249;-78
2021/10/07 05:53:01;;;;;;;;;8.25;8.25;;;;;12.48;67.11;102393.72;5015288;28;45178;-75
2021/10/07 05:55:26;;;;;;;;;8.00;8.00;;;;;12.42;67.16;102394.25;5014081;28;45291;-76
2021/10/07 05:57:52;;;;;;;;;7.25;7.00;;;;;12.38;67.34;102389.69;5014866;28;45737;-76
2021/10/07 06:00:18;;;;;;;;;6.25;6.25;;;;;12.44;67.22;102407.34;5014952;28;46257;-81
2021/10/07 06:02:43;;;;;;;;;11.75;7.00;;;;;12.35;67.40;102386.88;5014962;28;45496;-78
2021/10/07 06:05:10;;;;;;;;;9.25;7.75;;;;;12.40;67.41;102406.25;5016374;28;45457;-80
2021/10/07 06:07:36;;;;;;;;;8.75;7.00;;;;;12.30;67.36;102389.19;5015623;28;45326;-79
2021/10/07 06:10:04;;;;;;;;;8.50;8.50;;;;;12.41;67.53;102404.53;5015023;28;46271;-80
2021/10/07 06:12:29;;;;;;;;;7.75;5.25;;;;;12.47;67.42;102413.63;5016632;28;45319;-80
2021/10/07 06:14:55;;;;;;;;;8.25;7.75;;;;;12.45;67.25;102412.63;5016040;28;45258;-81
2021/10/07 06:17:21;;;;;;;;;7.50;6.50;;;;;12.49;67.41;102422.41;5014741;28;45565;-79
2021/10/07 06:19:49;;;;;;;;;7.25;6.75;;;;;12.50;67.49;102429.41;5014857;28;45808;-80
2021/10/07 06:22:15;;;;;;;;;8.75;6.25;;;;;12.46;67.31;102409.22;5014949;28;45803;-79
2021/10/07 06:24:41;;;;;;;;;9.75;8.00;;;;;12.52;67.54;102427.81;5014682;28;45373;-79
2021/10/07 06:27:06;;;;;;;;;7.50;6.50;;;;;12.50;67.38;102420.72;5015585;28;45556;-77
2021/10/07 06:29:32;;;;;;;;;7.00;5.50;;;;;12.54;67.29;102422.72;5013899;28;45859;-78
2021/10/07 06:31:58;;;;;;;;;10.00;6.25;;;;;12.56;67.27;102420.19;5016358;28;45492;-79
2021/10/07 06:34:23;;;;;;;;;10.75;7.00;;;;;12.60;67.28;102412.69;5018042;28;45365;-80
2021/10/07 06:36:49;;;;;;;;;7.50;7.00;;;;;12.54;67.19;102401.94;5017353;28;45327;-84
2021/10/07 06:39:15;;;;;;;;;8.75;8.25;;;;;12.54;67.29;102389.81;5016238;28;47118;-83
2021/10/07 06:41:40;;;;;;;;;9.25;7.25;;;;;12.73;66.88;102413.44;5017223;28;45624;-79
2021/10/07 06:44:06;;;;;;;;;9.50;8.75;;;;;12.72;67.06;102409.06;5017266;28;45223;-79
2021/10/07 06:46:32;;;;;;;;;8.25;8.00;;;;;12.78;66.98;102412.06;5018829;28;45462;-86
2021/10/07 06:48:58;;;;;;;;;10.00;8.75;;;;;12.81;66.86;102407.03;5018172;28;45556;-79
2021/10/07 06:51:27;;;;;;;;;7.25;7.25;;;;;12.89;66.60;102425.69;5018207;28;45642;-82
2021/10/07 06:53:54;;;;;;;;;10.00;7.00;;;;;12.87;66.46;102420.41;5018062;28;45302;-80
2021/10/07 06:56:21;;;;;;;;;10.50;8.50;;;;;12.93;66.36;102428.56;5018555;28;45473;-81
2021/10/07 06:58:52;;;;;;;;;12.25;8.75;;;;;12.85;66.19;102411.63;5017718;28;46182;-82
2021/10/07 07:01:19;;;;;;;;;9.25;8.00;;;;;12.98;66.43;102426.25;5017779;28;45825;-82
2021/10/07 07:03:47;;;;;;;;;11.00;9.25;;;;;12.96;66.43;102420.97;5017967;28;45388;-81
2021/10/07 07:06:12;;;;;;;;;8.00;8.00;;;;;13.06;66.37;102435.44;5018271;28;45475;-84
2021/10/07 07:08:38;;;;;;;;;11.50;9.00;;;;;13.00;66.03;102425.56;5018117;28;45383;-83
2021/10/07 07:11:03;;;;;;;;;9.00;9.00;;;;;13.12;66.21;102440.13;5018273;28;45308;-81
2021/10/07 07:13:29;;;;;;;;;9.25;9.00;;;;;13.09;66.34;102435.59;5019415;28;45445;-80
2021/10/07 07:15:54;;;;;;;;;11.00;10.50;;;;;13.07;66.11;102419.00;5018912;28;45510;-86
2021/10/07 07:18:20;;;;;;;;;11.00;11.00;;;;;13.23;65.79;102444.22;5016617;28;46348;-82
2021/10/07 07:20:46;;;;;;;;;16.25;12.00;;;;;13.27;66.13;102442.75;5034805;28;45441;-82
2021/10/07 07:23:12;;;;;;;;;11.00;9.75;;;;;13.36;65.58;102442.38;5019580;28;45358;-87
2021/10/07 07:25:38;;;;;;;;;9.75;8.75;;;;;13.30;65.71;102422.09;5019071;28;45255;-80
2021/10/07 07:28:04;;;;;;;;;11.25;8.25;;;;;13.39;65.64;102433.06;5017731;28;46280;-81
2021/10/07 07:30:30;;;;;;;;;9.00;8.25;;;;;13.44;65.33;102438.56;5018702;28;45340;-82
2021/10/07 07:32:56;;;;;;;;;9.00;9.00;;;;;13.54;65.30;102450.41;5021184;28;45453;-77
2021/10/07 07:35:21;;;;;;;;;9.75;7.75;;;;;13.55;65.26;102439.19;5016957;28;45659;-84
2021/10/07 07:37:47;;;;;;;;;15.50;13.50;;;;;13.58;65.22;102439.38;5016676;28;45332;-83
2021/10/07 07:40:13;;;;;;;;;12.75;9.25;;;;;13.49;65.25;102418.91;5017976;28;45393;-85
2021/10/07 07:42:39;;;;;;;;;14.25;10.25;;;;;13.50;65.37;102412.03;5018803;28;45345;-83
2021/10/07 07:45:05;;;;;;;;;10.50;10.25;;;;;13.73;65.46;102444.59;5036725;28;45436;-85
2021/10/07 07:47:32;;;;;;;;;11.50;10.25;;;;;13.80;65.30;102454.53;5019714;28;47190;-84
2021/10/07 07:49:57;;;;;;;;;11.00;10.00;;;;;13.75;64.96;102435.16;5021489;28;45842;-87
2021/10/07 07:52:23;;;;;;;;;9.00;9.00;;;;;13.72;65.13;102406.34;5023127;28;45204;-85
2021/10/07 07:54:50;;;;;;;;;13.50;10.75;;;;;13.75;64.68;102406.53;5025444;28;45235;-83
2021/10/07 07:57:16;;;;;;;;;11.00;8.25;;;;;13.81;65.02;102406.00;5018686;28;46251;-84
2021/10/07 07:59:41;;;;;;;;;15.50;10.50;;;;;14.09;64.49;102445.78;5017885;28;45436;-84
2021/10/07 08:02:07;;;;;;;;;13.50;12.00;;;;;14.11;64.58;102431.97;5018939;28;45395;-84
2021/10/07 08:04:33;;;;;;;;;17.00;13.75;;;;;14.14;64.17;102435.63;5017922;28;45458;-85
2021/10/07 08:06:59;;;;;;;;;14.25;13.25;;;;;14.13;64.47;102420.81;5016942;28;45339;-87
2021/10/07 08:09:26;;;;;;;;;8.25;5.00;;;;;14.40;64.25;102452.72;5034677;28;45517;-85
2021/10/07 08:11:53;;;;;;;;;13.00;11.00;;;;;14.45;64.27;102444.28;5020352;28;45375;-88
2021/10/07 08:14:18;;;;;;;;;10.50;10.00;;;;;14.49;63.91;102441.91;5016734;28;45273;-90
2021/10/07 08:16:45;;;;;;;;;10.25;9.50;;;;;14.50;64.23;102438.50;5036740;28;47248;-88
2021/10/07 08:19:11;;;;;;;;;12.25;10.50;;;;;14.72;63.63;102472.69;5028385;28;45428;-89
2021/10/07 08:21:41;;;;;;;;;13.50;12.75;;;;;14.60;63.99;102437.28;5047679;28;45299;-89
2021/10/07 08:24:09;;;;;;;;;12.75;11.00;;;;;14.76;63.88;102452.06;5048932;28;44908;-85
2021/10/07 08:26:35;;;;;;;;;8.50;8.50;;;;;14.69;63.30;102429.09;5032353;28;45310;-86
2021/10/07 08:29:01;;;;;;;;;12.75;10.75;;;;;14.76;63.27;102428.59;5018177;28;45291;-86
2021/10/07 08:31:27;;;;;;;;;16.50;13.00;;;;;15.02;63.30;102466.50;4999513;28;45290;-86
2021/10/07 08:33:52;;;;;;;;;14.75;10.75;;;;;14.95;63.29;102440.94;5025635;28;45532;-87
2021/10/07 08:36:18;;;;;;;;;12.25;10.25;;;;;15.16;63.31;102472.47;5038623;28;47118;-84
2021/10/07 08:38:44;;;;;;;;;12.25;10.25;;;;;15.20;62.95;102475.22;5020756;28;45446;-85
2021/10/07 08:41:12;;;;;;;;;13.00;10.25;;;;;15.20;62.79;102465.72;5033261;28;45404;-79
2021/10/07 08:43:40;;;;;;;;;13.50;11.25;;;;;15.29;63.05;102475.69;5016973;28;45505;-82
2021/10/07 08:46:11;;;;;;;;;12.50;10.00;;;;;15.33;62.85;102478.56;5015854;28;45559;-78
2021/10/07 08:48:37;;;;;;;;;14.00;10.25;;;;;15.38;62.90;102476.22;5009864;28;45896;-80
2021/10/07 08:51:03;;;;;;;;;13.75;11.00;;;;;15.33;63.04;102459.41;5015770;28;45367;-80
2021/10/07 08:53:29;;;;;;;;;11.75;10.75;;;;;15.51;62.84;102479.44;5014554;28;45577;-82
2021/10/07 08:55:55;;;;;;;;;12.75;10.25;;;;;15.52;62.43;102468.16;5013748;28;46281;-79
2021/10/07 08:58:20;;;;;;;;;13.00;12.00;;;;;15.61;62.63;102476.47;5015947;28;45873;-81
2021/10/07 09:00:46;;;;;;;;;13.00;11.00;;;;;15.66;62.53;102477.59;5012311;28;45439;-82
2021/10/07 09:03:20;;;;;;;;;13.50;11.75;;;;;15.65;62.50;102467.09;5016348;28;45534;-78
2021/10/07 09:05:47;;;;;;;;;13.75;10.25;;;;;15.74;62.45;102476.28;5015162;28;46034;-81
2021/10/07 09:08:15;;;;;;;;;14.00;12.50;;;;;15.82;61.90;102483.63;5016153;28;45831;-83
2021/10/07 09:10:47;;;;;;;;;15.00;12.50;;;;;15.88;62.12;102477.00;5019376;28;45441;-80
2021/10/07 09:13:22;;;;;;;;;15.75;12.00;;;;;15.94;61.98;102477.31;5026831;28;45396;-80
2021/10/07 09:15:51;;;;;;;;;17.50;12.25;;;;;16.02;61.83;102475.09;5019915;28;46063;-84
2021/10/07 09:18:18;;;;;;;;;15.00;10.50;;;;;16.09;62.32;102479.78;5018741;28;45275;-80
2021/10/07 09:20:47;;;;;;;;;14.00;12.50;;;;;16.12;61.42;102472.91;5016910;28;45401;-81
2021/10/07 09:23:19;;;;;;;;;15.25;14.75;;;;;16.28;61.88;102485.00;5016816;28;45408;-82
2021/10/07 09:26:06;;;;;;;;;14.25;11.00;;;;;16.35;61.35;102480.16;5014775;28;47819;-80
2021/10/07 09:28:57;;;;;;;;;14.25;11.25;;;;;16.41;61.49;102471.72;5015358;28;45938;-79
2021/10/07 09:31:34;;;;;;;;;13.50;11.75;;;;;16.51;61.19;102478.25;5012682;28;45256;-77
2021/10/07 09:34:04;;;;;;;;;11.75;11.75;;;;;16.56;61.02;102469.81;5014799;28;45350;-77
2021/10/07 09:36:30;;;;;;;;;14.50;10.75;;;;;16.59;60.66;102469.03;5014158;28;46120;-78
2021/10/07 09:38:57;;;;;;;;;12.00;11.25;;;;;16.66;60.71;102463.28;5013282;28;45395;-79
2021/10/07 09:41:30;;;;;;;;;15.00;11.50;;;;;16.75;60.54;102461.91;5015962;28;45438;-78
2021/10/07 09:44:04;;;;;;;;;14.75;11.75;;;;;16.81;60.12;102462.19;5014290;28;45585;-78
2021/10/07 09:46:50;;;;;;;;;26.50;21.00;;;;;16.85;60.00;102465.00;5016138;28;46106;-82
2021/10/07 09:49:20;;;;;;;;;9.00;9.00;;;;;16.87;60.05;102460.75;5016261;28;45407;-80
2021/10/07 09:51:51;;;;;;;;;14.50;12.00;;;;;16.78;60.23;102444.63;5015069;28;45384;-78
2021/10/07 09:54:25;;;;;;;;;14.00;11.25;;;;;16.85;60.27;102458.91;5014993;28;45576;-77
2021/10/07 09:56:56;;;;;;;;;9.00;9.00;;;;;16.79;60.28;102458.63;5013263;28;46836;-79
2021/10/07 09:59:24;;;;;;;;;11.00;9.75;;;;;16.80;60.31;102461.31;5015032;28;45374;-78
2021/10/07 10:01:51;;;;;;;;;10.25;9.75;;;;;16.79;60.40;102461.25;5014569;28;45326;-78
2021/10/07 10:04:17;;;;;;;;;13.25;12.00;;;;;16.81;60.52;102462.19;5015412;28;45453;-79
2021/10/07 10:06:43;;;;;;;;;9.25;8.75;;;;;16.81;60.52;102451.72;5018238;28;46562;-79
2021/10/07 10:09:08;;;;;;;;;13.00;9.50;;;;;16.78;60.17;102436.78;5018672;28;45259;-80
2021/10/07 10:11:34;;;;;;;;;12.25;10.00;;;;;16.83;60.66;102440.53;5018810;28;45311;-81
2021/10/07 10:14:00;;;;;;;;;10.75;9.75;;;;;16.88;60.60;102456.44;5018579;28;45271;-79
2021/10/07 10:16:26;;;;;;;;;12.00;9.50;;;;;16.90;60.47;102448.63;5018663;28;45358;-80
2021/10/07 10:19:02;;;;;;;;;11.25;9.00;;;;;16.83;60.50;102440.53;5018378;28;45399;-78
2021/10/07 10:21:33;;;;;;;;;14.75;11.00;;;;;16.95;60.54;102448.06;5018545;28;45346;-79
2021/10/07 10:24:03;;;;;;;;;11.75;7.25;;;;;16.94;60.61;102438.41;5020567;28;45419;-78
2021/10/07 10:26:29;;;;;;;;;13.25;9.25;;;;;17.04;60.36;102441.44;5018962;28;45980;-79
2021/10/07 10:28:55;;;;;;;;;9.00;8.50;;;;;17.12;60.26;102450.50;5018246;28;45308;-79
2021/10/07 10:31:41;;;;;;;;;8.00;7.25;;;;;17.20;60.38;102445.63;5019192;28;45435;-78
2021/10/07 10:34:13;;;;;;;;;9.50;6.50;;;;;17.24;59.92;102447.56;5018391;28;45904;-79
2021/10/07 10:36:46;;;;;;;;;16.50;13.25;;;;;17.36;59.79;102450.72;5018019;28;45533;-78
2021/10/07 10:39:18;;;;;;;;;26.75;19.50;;;;;17.47;60.09;102453.78;5017830;28;45346;-78
2021/10/07 10:41:59;;;;;;;;;12.00;9.00;;;;;17.53;59.15;102440.97;5017812;28;45418;-80
2021/10/07 10:44:27;;;;;;;;;9.25;6.25;;;;;17.60;59.19;102452.59;5018086;28;45343;-79
2021/10/07 10:47:06;;;;;;;;;5.00;4.50;;;;;17.60;58.67;102450.84;5017518;28;45313;-77
2021/10/07 10:49:36;;;;;;;;;3.50;3.25;;;;;17.61;58.25;102447.41;5017103;28;45171;-77
2021/10/07 10:52:10;;;;;;;;;3.00;3.00;;;;;17.58;58.38;102426.31;5016229;28;45370;-78
2021/10/07 10:54:43;;;;;;;;;4.25;2.25;;;;;17.76;57.56;102441.03;5018095;28;45538;-78
2021/10/07 10:57:23;;;;;;;;;4.75;4.25;;;;;17.84;57.44;102447.47;5017700;28;46167;-79
2021/10/07 11:00:09;;;;;;;;;2.25;1.75;;;;;17.97;57.42;102448.00;5017476;28;45654;-78
2021/10/07 11:02:35;;;;;;;;;3.00;2.25;;;;;18.02;56.72;102441.22;5016679;28;45280;-79
2021/10/07 11:05:15;;;;;;;;;5.50;2.00;;;;;18.09;56.52;102444.16;5017861;28;45271;-78
2021/10/07 11:07:41;;;;;;;;;3.00;3.00;;;;;18.13;56.36;102442.53;5017361;28;46209;-78
2021/10/07 11:10:15;;;;;;;;;1.75;1.75;;;;;18.20;56.18;102435.81;5016902;28;45403;-79
2021/10/07 11:12:45;;;;;;;;;8.50;6.50;;;;;18.35;55.63;102433.81;5015882;28;45465;-77
2021/10/07 11:15:11;;;;;;;;;6.00;6.00;;;;;18.46;55.85;102422.84;5018073;28;45367;-78
2021/10/07 11:17:41;;;;;;;;;3.25;3.25;;;;;18.58;55.44;102440.75;5016887;28;47633;-77
2021/10/07 11:20:08;;;;;;;;;5.00;2.25;;;;;18.63;55.18;102437.47;5017020;28;45405;-77
2021/10/07 11:22:34;;;;;;;;;5.00;2.75;;;;;18.61;54.75;102430.38;5017754;28;45239;-77
2021/10/07 11:25:00;;;;;;;;;2.25;2.25;;;;;18.58;54.70;102433.75;5017855;28;45732;-77
2021/10/07 11:27:37;;;;;;;;;2.00;2.00;;;;;18.52;54.86;102436.16;5016814;28;46146;-79